Webcams

Webcam1&2        Webcam1 (Zeitraffer 2 Std.)        Webcam2 (Zeitraffer 2 Std.)

Webcam1 - Zeitraffer (die letzten zwei Stunden, Intervall: 10min)
cam1--20190217_123959M
cam1--20190217_124959M
cam1--20190217_125959M
cam1--20190217_131000M
cam1--20190217_131959M
cam1--20190217_132959M
cam1--20190217_134000M
cam1--20190217_135000M
cam1--20190217_135959M
cam1--20190217_141000M
cam1--20190217_141959M
cam1--20190217_143000M
cam1--20190217_144000M
01/13 
start stop bwd fwd

Webcam1 - Aktuell

Lokale Serverzeit 14:40 | 17.02.2019
Webcam-Lageplan

Flugwetter

[source: ADDS]
METAR
LOWL 171320Z 29003KT 240V320 CAVOK 11/M00 Q1026 NOSIG =
TAF LOWL 171115Z 1712/1812 VRB02KT CAVOK TX09/1714Z TNM03/1805Z TEMPO 1800/1809 4000 BR SCT003 PROB30 TEMPO 1804/1808 0300 FZBCFG BKN002
TAF
TAF LOWL 171115Z 1712/1812 VRB02KT CAVOK TX09/1714Z TNM03/1805Z TEMPO 1800/1809 4000 BR SCT003 PROB30 TEMPO 1804/1808 0300 FZBCFG BKN002 =